Airfield :







YOU CAN JOIN US ON...

 
LOGIN :

Register | Disclaimer

   EN    FR    IT 

 









Legend :    VFR   Marginal VFR   IFR   Intensive IFR   Very Intensive IFR
Visi :
Ceiling :
>= 8 km
>= 3000ft
5 to 8 km
1000 to 3000 ft
1500m to 5 km
500 to 1000 ft
800 to 1500m
200 to 500 ft
< 800m
< 200 ft
Symbols :   Thunderstorms  Fog  Heavy snow  Heavy precipitations  Wind > 20 kt






- Airport Elevation : 172 ft
- IATA code : YYY


CYYY - Mont Joli

CURRENT METAR :
  • 291900Z 33014G20KT 30SM BKN028 M10/M17 A3005 RMK SC5 SLP183

EXPIRED METARs :
  • 291800Z 33014KT 30SM BKN029 M11/M17 A3005 RMK SC5 SLP182
  • 291700Z 32010G15KT 30SM BKN025 M12/M17 A3006 RMK SC7 SLP185

TAF TAF CYYY
Valid from the 29 at 14:00 until the 30 at 02:00 UTC


291341Z 2914/3002 35012G22KT P6SM FEW030
BECMG 2914/2916 33015G25KT
FM300000 34012G22KT P6SM FEW025
BECMG 3000/3002 34010G20KT RMK NXT FCST BY 292000Z



MET'MAP, your aeronautical weather chart ! - Copyright ORBIFLY December 2007 - Disclaimer

ORBIFLY MET'MAP TEAM :

Programming & Development : Alexandra Zaïnal
Concept & original design : Baudouin d'Aumeries
Assistance for programming : Marc-Olivier Méhu
Technical & hardware support : Manuel Goepfert

Contact : metmap@orbifly.com




SOURCES & CREDITS :

   NOAA